Latest Weather Observations for Mudgee

IDN60801

Issued at 5:05 pm EDT Wednesday 22 October 2014 (issued every 30 minutes, with the page automatically refreshed every 10 minutes)

About weather observations | Map of weather stations | Latest weather observations for NSW | Other Formats
Station Details ID: 062101 Name: MUDGEE AIRPORT AWS Lat: -32.56 Lon: 149.61 Height: 471.0 m
Data from the previous 72 hours. | See also: Recent months at Mudgee
Date/Time
EDT
Temp
°C
App
Temp
°C
Dew
Point
Rel
Hum
%
Delta-T
°C
Wind Press
QNH
hPa
Press
MSL
hPa
Rain
since 9 am
mm
Dir
 
Spd
km/h
Gust
km/h
Spd
kts
Gust
kts
22/05:00pm 26.7 24.4 10.4 36 9.3 NNW 13 20 7 11 1020.2 1019.4 0.0
22/04:30pm 26.0 24.7 9.8 36 9.1 N 7 11 4 6 1020.5 1019.7 0.0
22/04:00pm 26.0 23.5 9.8 36 9.1 NNE 13 17 7 9 1020.6 1019.8 0.0
22/03:30pm 25.7 23.9 9.5 36 9.1 W 9 17 5 9 1021.1 1020.3 0.0
22/03:00pm 25.6 24.4 10.2 38 8.7 NNW 7 17 4 9 1021.8 1020.9 0.0
22/02:30pm 24.6 23.1 9.3 38 8.5 WNW 7 13 4 7 1022.2 1021.4 0.0
22/02:00pm 24.2 22.3 9.0 38 8.4 NNW 9 13 5 7 1022.7 1021.9 0.0
22/01:30pm 23.4 21.9 9.0 40 7.9 NW 7 13 4 7 1023.3 1022.5 0.0
22/01:00pm 22.8 20.9 9.2 42 7.4 NW 9 20 5 11 1024.1 1023.3 0.0
22/12:30pm 21.3 19.7 8.2 43 7.0 W 6 11 3 6 1024.6 1023.8 0.0
22/12:00pm 21.1 19.1 8.7 45 6.7 S 9 19 5 10 1025.2 1024.4 0.0
22/11:30am 20.1 18.6 9.1 49 5.9 W 7 11 4 6 1025.8 1025.1 0.0
22/11:00am 18.6 16.3 7.4 48 5.8 SE 9 13 5 7 1026.5 1025.7 0.0
22/10:30am 17.7 15.8 6.9 49 5.5 NE 6 13 3 7 1027.0 1026.2 0.0
22/10:00am 16.7 14.7 7.1 53 4.9 SE 7 13 4 7 1027.1 1026.3 0.0
22/09:30am 15.4 13.0 6.9 57 4.3 SE 9 15 5 8 1027.3 1026.5 0.0
22/09:00am 14.7 12.0 7.3 61 3.7 SSE 11 19 6 10 1027.2 1026.4 0.0
22/08:30am 12.8 9.0 5.9 63 3.3 SSE 15 20 8 11 1027.3 1026.5 0.0
22/08:00am 12.1 9.1 6.2 67 2.8 SSE 11 15 6 8 1027.3 1026.5 0.0
22/07:30am 11.0 8.9 6.6 74 2.1 SSE 7 11 4 6 1027.3 1026.5 0.0
22/07:00am 9.9 7.7 6.1 77 1.8 SSE 7 11 4 6 1027.3 1026.5 0.0
22/06:30am 9.0 6.4 5.9 81 1.5 SSE 9 11 5 6 1027.1 1026.3 0.0
22/06:00am 9.8 6.1 6.2 78 1.7 SSE 15 19 8 10 1026.7 1025.9 0.0
22/05:30am 10.1 6.4 6.3 77 1.8 SSE 15 22 8 12 1026.6 1025.8 0.0
22/05:00am 9.9 6.5 6.1 77 1.8 SSE 13 20 7 11 1026.6 1025.8 0.0
22/04:30am 10.3 6.6 6.1 75 2.0 SE 15 24 8 13 1026.7 1025.9 0.0
22/04:00am 10.8 7.5 6.2 73 2.2 SE 13 26 7 14 1026.9 1026.1 0.0
22/03:30am 11.2 7.5 6.5 73 2.3 SE 15 22 8 12 1027.1 1026.3 0.0
22/03:00am 11.4 8.6 6.9 74 2.2 SE 11 22 6 12 1027.4 1026.6 0.0
22/02:30am 11.9 7.5 7.2 73 2.3 SE 20 28 11 15 1027.6 1026.9 0.0
22/02:13am 12.0 7.6 7.3 73 2.3 SE 20 30 11 16 1027.8 1027.1 0.0
22/02:00am 12.1 9.0 7.4 73 2.3 ESE 13 20 7 11 1028.0 1027.3 0.0
22/01:30am 12.3 8.9 7.6 73 2.3 ESE 15 24 8 13 1028.4 1027.6 0.0
22/01:00am 12.4 9.4 7.7 73 2.3 ESE 13 26 7 14 1028.8 1028.0 0.0
22/12:44am 12.5 9.5 7.8 73 2.4 ESE 13 19 7 10 1029.0 1028.2 0.0
22/12:30am 12.5 9.1 7.8 73 2.4 ESE 15 24 8 13 1029.3 1028.5 0.0
22/12:00am 12.8 9.1 7.9 72 2.5 ESE 17 26 9 14 1029.4 1028.7 0.0
 
Date/Time
EDT
Temp
°C
App
Temp
°C
Dew
Point
Rel
Hum
%
Delta-T
°C
Wind Press
QNH
hPa
Press
MSL
hPa
Rain
since 9 am
mm
Dir
 
Spd
km/h
Gust
km/h
Spd
kts
Gust
kts
21/11:30pm 13.1 9.0 8.0 71 2.6 ESE 19 30 10 16 1029.6 1028.9 0.0
21/11:00pm 13.2 9.2 8.1 71 2.6 ESE 19 30 10 16 1029.7 1029.0 0.0
21/10:30pm 13.5 10.2 7.9 69 2.8 SE 15 24 8 13 1029.8 1029.1 0.0
21/10:00pm 13.8 10.5 8.2 69 2.8 SE 15 30 8 16 1029.8 1029.1 0.0
21/09:30pm 13.9 11.4 8.3 69 2.9 ESE 11 17 6 9 1029.5 1028.8 0.0
21/09:00pm 14.2 11.4 8.6 69 2.9 SE 13 20 7 11 1029.3 1028.5 0.0
21/08:30pm 14.5 11.3 8.5 67 3.1 SE 15 24 8 13 1029.1 1028.3 0.0
21/08:00pm 14.9 11.7 8.4 65 3.3 SE 15 24 8 13 1028.9 1028.1 0.0
21/07:30pm 15.3 12.6 8.8 65 3.4 SE 13 30 7 16 1028.5 1027.7 0.0
21/07:00pm 16.0 12.8 8.5 61 3.9 SE 15 24 8 13 1028.0 1027.3 0.0
21/06:30pm 17.1 12.7 8.8 58 4.4 SE 22 33 12 18 1027.8 1027.1 0.0
21/06:00pm 18.0 14.0 9.1 56 4.7 SE 20 35 11 19 1027.5 1026.8 0.0
21/05:30pm 20.0 16.3 9.3 50 5.8 ESE 19 30 10 16 1027.2 1026.4 0.0
21/05:00pm 20.4 16.7 9.3 49 6.0 SSE 19 28 10 15 1027.0 1026.2 0.0
21/04:30pm 21.0 18.0 9.3 47 6.4 ESE 15 26 8 14 1026.9 1026.1 0.0
21/04:00pm 21.0 17.6 9.3 47 6.3 ESE 17 26 9 14 1026.9 1026.1 0.0
21/03:30pm 21.4 18.9 9.6 47 6.5 E 13 19 7 10 1027.1 1026.3 0.0
21/03:00pm 20.5 17.5 9.1 48 6.1 E 15 35 8 19 1027.4 1026.6 0.0
21/02:30pm 20.9 17.5 9.2 47 6.4 E 17 20 9 11 1027.8 1027.1 0.0
21/02:00pm 20.6 17.2 9.2 48 6.2 E 17 26 9 14 1028.4 1027.6 0.0
21/01:30pm 21.2 17.9 11.0 52 5.7 NE 19 32 10 17 1028.8 1028.0 0.0
21/01:00pm 19.3 15.4 9.5 53 5.3 E 20 30 11 16 1029.4 1028.7 0.0
21/12:30pm 18.4 14.0 8.9 54 5.1 ENE 22 35 12 19 1029.8 1029.1 0.0
21/12:00pm 17.0 13.0 9.2 60 4.1 E 20 30 11 16 1030.3 1029.6 0.0
21/11:30am 17.5 13.9 9.9 61 4.1 ENE 19 30 10 16 1030.7 1029.9 0.0
21/11:00am 16.8 12.7 8.8 59 4.2 ENE 20 30 11 16 1030.9 1030.1 0.0
21/10:30am 16.6 12.6 9.1 61 4.0 ENE 20 30 11 16 1031.1 1030.3 0.0
21/10:00am 16.0 12.1 8.5 61 3.9 ESE 19 28 10 15 1031.1 1030.3 0.0
21/09:30am 15.5 12.0 8.7 64 3.5 ESE 17 26 9 14 1031.2 1030.5 0.0
21/09:00am 15.0 11.8 8.5 65 3.3 E 15 26 8 14 1031.2 1030.5 0.0
21/08:30am 14.7 11.5 8.4 66 3.3 E 15 20 8 11 1031.0 1030.2 0.0
21/08:00am 14.5 12.0 8.2 66 3.2 E 11 19 6 10 1030.7 1029.9 0.0
21/07:30am 14.0 11.5 8.4 69 2.9 ESE 11 19 6 10 1030.2 1029.5 0.0
21/07:00am 13.9 10.7 8.5 70 2.8 ESE 15 28 8 15 1029.7 1029.0 0.0
21/06:30am 13.7 11.3 8.7 72 2.6 SE 11 20 6 11 1029.4 1028.7 0.0
21/06:00am 13.8 11.1 8.8 72 2.6 ESE 13 17 7 9 1029.0 1028.2 0.0
21/05:30am 13.7 10.6 8.7 72 2.6 SE 15 20 8 11 1028.8 1028.0 0.0
21/05:00am 13.8 10.7 9.0 73 2.5 ESE 15 20 8 11 1028.6 1027.8 0.0
21/04:30am 13.9 10.9 9.1 73 2.5 SE 15 28 8 15 1028.6 1027.8 0.0
21/04:00am 13.9 11.2 8.9 72 2.6 SE 13 19 7 10 1028.7 1027.9 0.0
21/03:30am 13.9 10.8 8.9 72 2.6 SE 15 24 8 13 1028.7 1027.9 0.0
21/03:00am 14.0 10.9 9.0 72 2.6 SE 15 24 8 13 1028.7 1027.9 0.0
21/02:30am 14.0 10.6 9.0 72 2.6 SE 17 24 9 13 1028.9 1028.1 0.0
21/02:00am 14.1 11.1 9.1 72 2.6 SE 15 26 8 14 1029.0 1028.2 0.0
21/01:30am 14.1 10.7 9.1 72 2.6 SE 17 26 9 14 1029.2 1028.4 0.0
21/01:00am 14.1 10.1 8.9 71 2.7 SE 20 33 11 18 1029.4 1028.7 0.0
21/12:30am 14.3 10.3 9.1 71 2.7 SE 20 32 11 17 1029.5 1028.8 0.0
21/12:00am 14.4 10.4 9.2 71 2.7 SE 20 35 11 19 1029.5 1028.8 0.0
 
Date/Time
EDT
Temp
°C
App
Temp
°C
Dew
Point
Rel
Hum
%
Delta-T
°C
Wind Press
QNH
hPa
Press
MSL
hPa
Rain
since 9 am
mm
Dir
 
Spd
km/h
Gust
km/h
Spd
kts
Gust
kts
20/11:30pm 14.5 10.2 9.5 72 2.6 SE 22 30 12 16 1029.6 1028.9 0.0
20/11:00pm 15.0 10.5 10.2 73 2.6 SE 24 35 13 19 1029.5 1028.8 0.0
20/10:30pm 15.4 11.9 10.2 71 2.8 SE 19 32 10 17 1029.4 1028.7 0.0
20/10:00pm 15.7 12.0 10.2 70 2.9 SE 20 33 11 18 1029.2 1028.4 0.0
20/09:30pm 15.6 12.4 9.9 69 3.0 SE 17 24 9 13 1029.0 1028.2 0.0
20/09:00pm 15.9 12.6 9.6 66 3.3 SE 17 28 9 15 1028.8 1028.0 0.0
20/08:30pm 16.3 13.3 9.3 63 3.7 SE 15 28 8 15 1028.4 1027.6 0.0
20/08:00pm 16.6 13.2 9.3 62 3.9 SE 17 28 9 15 1027.9 1027.2 0.0
20/07:30pm 17.0 12.3 9.4 61 4.1 SE 24 37 13 20 1027.6 1026.9 0.0
20/07:00pm 17.7 13.8 9.3 58 4.5 SE 20 35 11 19 1027.3 1026.5 0.0
20/06:30pm 18.3 14.0 9.4 56 4.8 SE 22 35 12 19 1027.0 1026.2 0.0
20/06:00pm 18.9 14.7 9.7 55 5.0 SE 22 37 12 20 1026.6 1025.8 0.0
20/05:30pm 20.0 15.5 9.9 52 5.5 SE 24 35 13 19 1026.2 1025.4 0.0
20/05:00pm 21.7 18.1 10.5 49 6.2 SE 20 33 11 18 1025.7 1025.0 0.0
20/04:30pm 22.7 19.1 10.5 46 6.9 SE 20 33 11 18 1025.3 1024.5 0.0
20/04:00pm 23.7 19.8 10.7 44 7.3 ESE 22 33 12 18 1025.3 1024.5 0.0
20/03:30pm 23.9 21.1 11.2 44 7.3 ESE 17 32 9 17 1025.3 1024.5 0.0
20/03:00pm 24.2 20.7 10.8 43 7.6 ESE 20 30 11 16 1025.5 1024.7 0.0
20/02:30pm 24.5 21.1 11.1 43 7.7 ESE 20 32 11 17 1025.7 1025.0 0.0
20/02:00pm 24.8 21.1 11.4 43 7.7 SSE 22 30 12 16 1025.9 1025.2 0.0
20/01:30pm 25.7 22.6 11.5 41 8.2 SE 19 32 10 17 1026.2 1025.4 0.0
20/01:00pm 26.6 23.2 10.7 37 9.1 SE 19 26 10 14 1025.9 1025.2 0.0
20/12:30pm 27.0 23.7 9.4 33 9.9 SSE 17 28 9 15 1025.9 1025.2 0.0
20/12:00pm 27.1 25.2 9.0 32 10.1 S 9 19 5 10 1026.3 1025.5 0.0
20/11:30am 26.5 23.8 8.9 33 9.8 S 13 22 7 12 1026.6 1025.8 0.0
20/11:00am 26.3 23.7 9.2 34 9.5 SSE 13 24 7 13 1026.6 1025.8 0.0
20/10:30am 24.3 22.8 10.6 42 7.8 S 9 13 5 7 1026.9 1026.1 0.0
20/10:00am 22.3 21.2 10.5 47 6.6 S 7 15 4 8 1027.0 1026.2 0.0
20/09:30am 20.4 20.4 9.9 51 5.8 CALM 0 0 0 0 1026.8 1026.0 0.0
20/09:00am 18.0 17.8 9.1 56 4.7 CALM 0 0 0 0 1026.6 1025.8 0.0
20/08:30am 15.3 15.0 8.5 64 3.5 CALM 0 0 0 0 1026.3 1025.5 0.0
20/08:00am 12.5 11.8 8.4 76 2.1 SSW 2 7 1 4 1026.0 1025.3 0.0
20/07:30am 11.2 10.7 7.7 79 1.7 CALM 0 0 0 0 1025.7 1025.0 0.0
20/07:00am 9.8 9.2 7.4 85 1.2 CALM 0 0 0 0 1025.4 1024.6 0.0
20/06:30am 7.9 7.1 6.4 90 0.7 CALM 0 0 0 0 1025.0 1024.2 0.0
20/06:00am 8.7 7.9 6.7 87 0.9 CALM 0 0 0 0 1024.6 1023.8 0.0
20/05:30am 8.6 7.8 6.6 87 1.0 CALM 0 0 0 0 1024.7 1023.9 0.0
20/05:00am 8.2 6.0 6.2 87 0.9 NE 7 11 4 6 1024.3 1023.5 0.0
20/04:30am 8.1 6.1 6.4 89 0.8 S 6 7 3 4 1024.3 1023.5 0.0
20/04:00am 8.6 7.1 6.7 88 0.9 ENE 4 7 2 4 1024.3 1023.5 0.0
20/03:30am 8.5 5.6 6.3 86 1.0 NE 11 11 6 6 1024.5 1023.7 0.0
20/03:00am 9.8 8.3 6.9 82 1.4 NE 4 9 2 5 1024.8 1024.0 0.0
20/02:30am 9.7 8.9 6.6 81 1.5 CALM 0 0 0 0 1024.8 1024.0 0.0
20/02:00am 10.6 9.9 6.9 78 1.8 CALM 0 6 0 3 1024.9 1024.1 0.0
20/01:30am 10.5 8.6 6.8 78 1.8 NE 6 7 3 4 1025.1 1024.3 0.0
20/01:00am 12.1 11.3 6.4 68 2.8 CALM 0 0 0 0 1025.1 1024.3 0.0
20/12:30am 12.0 11.3 7.1 72 2.4 CALM 0 0 0 0 1025.3 1024.5 0.0
20/12:00am 11.6 9.2 6.9 73 2.3 NE 9 13 5 7 1025.3 1024.5 0.0
 
Date/Time
EDT
Temp
°C
App
Temp
°C
Dew
Point
Rel
Hum
%
Delta-T
°C
Wind Press
QNH
hPa
Press
MSL
hPa
Rain
since 9 am
mm
Dir
 
Spd
km/h
Gust
km/h
Spd
kts
Gust
kts
19/11:30pm 12.2 10.5 7.5 73 2.3 NE 6 9 3 5 1025.4 1024.6 0.0
19/11:00pm 12.7 12.2 7.8 72 2.5 CALM 0 0 0 0 1025.4 1024.6 0.0
19/10:30pm 13.4 12.6 8.3 71 2.6 SE 2 6 1 3 1025.4 1024.6 0.0
19/10:00pm 13.9 11.8 8.1 68 2.9 NE 9 11 5 6 1025.3 1024.5 0.0
19/09:30pm 15.4 12.9 8.4 63 3.6 NNE 11 11 6 6 1025.4 1024.6 0.0
19/09:00pm 17.1 15.6 8.3 56 4.6 ENE 6 9 3 5 1025.2 1024.4 0.0
19/08:30pm 19.8 18.8 7.2 44 6.6 NNW 2 6 1 3 1024.8 1024.0 0.0
19/08:00pm 20.8 20.0 6.4 39 7.4 CALM 0 6 0 3 1024.3 1023.5 0.0
19/07:30pm 21.8 19.7 6.5 37 8.0 NW 7 9 4 5 1024.0 1023.2 0.0
19/07:00pm 23.6 21.3 7.3 35 8.7 NNW 9 9 5 5 1023.6 1022.8 0.0
19/06:30pm 24.9 23.0 7.5 33 9.4 NNW 7 11 4 6 1023.5 1022.7 0.0
19/06:00pm 26.4 23.9 6.4 28 10.6 W 9 13 5 7 1023.2 1022.4 0.0
19/05:30pm 26.4 23.1 6.4 28 10.7 NW 13 17 7 9 1023.2 1022.4 0.0

Other Formats:

Comma delimited format used in spreadsheet applications
http://www.bom.gov.au/fwo/IDN60801/IDN60801.94727.axf

JavaScript Object Notation format (JSON) in row-major order
http://www.bom.gov.au/fwo/IDN60801/IDN60801.94727.json